Nagyleta, Hungary
Current Conditions -  °F | °C
As of 6:15 AM on Saturday 25 Oct 2014 (Local Time) from LHDC Reporting Station
Clear Clear  
Wind Chill: 32°   Ceiling: Unl
Heat Index: 39°   Visibility: 6mi
Dew Point: 36°   Wind: 10mph
Humidity: 87%   Direction: 30°NNE
Pressure: 30.21"   Gusts: NA
Location:  47.38°N, 21.9°E
Report Text: LHDC 250415Z 03009KT CAVOK 04/02 Q1023
Loading
Personal Weather Stations






























Interactive Weather Map
Tropical Storm Tracking
New forecast layout! Learn more

10-Day Weather Forecast

Advertisements
Track Severe Weather on mobile